sensor_id;sensor_type;location;lat;lon;timestamp;temperature;humidity
7048;DHT22;3565;53.254;10.352;2022-07-19T00:00:52;17.70;99.90
7048;DHT22;3565;53.254;10.352;2022-07-19T00:03:21;17.70;99.90
7048;DHT22;3565;53.254;10.352;2022-07-19T00:05:50;17.50;99.90
7048;DHT22;3565;53.254;10.352;2022-07-19T00:08:19;17.50;99.90
7048;DHT22;3565;53.254;10.352;2022-07-19T00:13:17;17.40;99.90
7048;DHT22;3565;53.254;10.352;2022-07-19T00:15:46;17.40;99.90
7048;DHT22;3565;53.254;10.352;2022-07-19T00:18:16;17.30;99.90
7048;DHT22;3565;53.254;10.352;2022-07-19T00:23:14;17.30;99.90
7048;DHT22;3565;53.254;10.352;2022-07-19T00:30:40;17.30;99.90
7048;DHT22;3565;53.254;10.352;2022-07-19T00:35:38;17.20;99.90
7048;DHT22;3565;53.254;10.352;2022-07-19T00:48:03;17.00;99.90
7048;DHT22;3565;53.254;10.352;2022-07-19T00:50:33;17.00;99.90
7048;DHT22;3565;53.254;10.352;2022-07-19T00:53:03;16.90;99.90
7048;DHT22;3565;53.254;10.352;2022-07-19T01:00:33;16.70;99.90
7048;DHT22;3565;53.254;10.352;2022-07-19T01:03:02;16.70;99.90
7048;DHT22;3565;53.254;10.352;2022-07-19T01:08:00;16.60;99.90
7048;DHT22;3565;53.254;10.352;2022-07-19T01:10:29;16.60;99.90
7048;DHT22;3565;53.254;10.352;2022-07-19T01:25:23;16.30;99.90
7048;DHT22;3565;53.254;10.352;2022-07-19T01:27:52;16.30;99.90
7048;DHT22;3565;53.254;10.352;2022-07-19T01:30:23;16.10;99.90
7048;DHT22;3565;53.254;10.352;2022-07-19T01:35:32;16.10;99.90
7048;DHT22;3565;53.254;10.352;2022-07-19T01:38:01;16.00;99.90
7048;DHT22;3565;53.254;10.352;2022-07-19T01:40:30;16.10;99.90
7048;DHT22;3565;53.254;10.352;2022-07-19T01:43:02;16.10;99.90
7048;DHT22;3565;53.254;10.352;2022-07-19T01:45:31;16.10;99.90
7048;DHT22;3565;53.254;10.352;2022-07-19T01:48:01;16.10;99.90
7048;DHT22;3565;53.254;10.352;2022-07-19T01:50:30;16.00;99.90
7048;DHT22;3565;53.254;10.352;2022-07-19T01:55:27;16.00;99.90
7048;DHT22;3565;53.254;10.352;2022-07-19T01:57:56;15.90;99.90
7048;DHT22;3565;53.254;10.352;2022-07-19T02:02:53;15.90;99.90
7048;DHT22;3565;53.254;10.352;2022-07-19T02:05:23;15.90;99.90
7048;DHT22;3565;53.254;10.352;2022-07-19T02:07:52;15.80;99.90
7048;DHT22;3565;53.254;10.352;2022-07-19T02:10:21;15.80;99.90
7048;DHT22;3565;53.254;10.352;2022-07-19T02:17:46;15.70;99.90
7048;DHT22;3565;53.254;10.352;2022-07-19T02:22:44;15.60;99.90
7048;DHT22;3565;53.254;10.352;2022-07-19T02:25:13;15.70;99.90
7048;DHT22;3565;53.254;10.352;2022-07-19T02:27:45;15.70;99.90
7048;DHT22;3565;53.254;10.352;2022-07-19T02:30:14;15.60;99.90
7048;DHT22;3565;53.254;10.352;2022-07-19T02:32:45;15.30;99.90
7048;DHT22;3565;53.254;10.352;2022-07-19T02:35:14;15.20;99.90
7048;DHT22;3565;53.254;10.352;2022-07-19T02:37:44;15.00;99.90
7048;DHT22;3565;53.254;10.352;2022-07-19T02:40:13;15.10;99.90
7048;DHT22;3565;53.254;10.352;2022-07-19T02:42:42;16.40;99.90
7048;DHT22;3565;53.254;10.352;2022-07-19T02:45:11;15.20;99.90
7048;DHT22;3565;53.254;10.352;2022-07-19T02:50:09;15.20;99.90
7048;DHT22;3565;53.254;10.352;2022-07-19T02:52:38;15.30;99.90
7048;DHT22;3565;53.254;10.352;2022-07-19T02:55:08;15.30;99.90
7048;DHT22;3565;53.254;10.352;2022-07-19T02:57:38;15.30;99.90
7048;DHT22;3565;53.254;10.352;2022-07-19T03:00:09;15.30;99.90
7048;DHT22;3565;53.254;10.352;2022-07-19T03:02:38;15.40;99.90
7048;DHT22;3565;53.254;10.352;2022-07-19T03:05:08;15.30;99.90
7048;DHT22;3565;53.254;10.352;2022-07-19T03:07:37;15.30;99.90
7048;DHT22;3565;53.254;10.352;2022-07-19T03:10:09;15.30;99.90
7048;DHT22;3565;53.254;10.352;2022-07-19T03:12:38;15.30;99.90
7048;DHT22;3565;53.254;10.352;2022-07-19T03:15:09;15.20;99.90
7048;DHT22;3565;53.254;10.352;2022-07-19T03:17:38;15.20;99.90
7048;DHT22;3565;53.254;10.352;2022-07-19T03:20:11;15.20;99.90
7048;DHT22;3565;53.254;10.352;2022-07-19T03:22:40;15.20;99.90
7048;DHT22;3565;53.254;10.352;2022-07-19T03:25:09;15.20;99.90
7048;DHT22;3565;53.254;10.352;2022-07-19T03:27:38;15.00;99.90
7048;DHT22;3565;53.254;10.352;2022-07-19T03:30:10;14.80;99.90
7048;DHT22;3565;53.254;10.352;2022-07-19T03:35:36;15.00;99.90
7048;DHT22;3565;53.254;10.352;2022-07-19T03:38:05;15.00;99.90
7048;DHT22;3565;53.254;10.352;2022-07-19T03:40:34;14.90;99.90
7048;DHT22;3565;53.254;10.352;2022-07-19T03:43:04;14.90;99.90
7048;DHT22;3565;53.254;10.352;2022-07-19T03:45:33;14.90;99.90
7048;DHT22;3565;53.254;10.352;2022-07-19T03:48:04;14.90;99.90
7048;DHT22;3565;53.254;10.352;2022-07-19T03:50:33;14.90;99.90
7048;DHT22;3565;53.254;10.352;2022-07-19T03:53:02;15.00;99.90
7048;DHT22;3565;53.254;10.352;2022-07-19T03:55:31;15.10;99.90
7048;DHT22;3565;53.254;10.352;2022-07-19T03:58:00;15.20;99.90
7048;DHT22;3565;53.254;10.352;2022-07-19T04:00:29;15.20;99.90
7048;DHT22;3565;53.254;10.352;2022-07-19T04:02:58;15.20;99.90
7048;DHT22;3565;53.254;10.352;2022-07-19T04:05:27;15.20;99.90
7048;DHT22;3565;53.254;10.352;2022-07-19T04:07:56;15.30;99.90
7048;DHT22;3565;53.254;10.352;2022-07-19T04:10:25;15.30;99.90
7048;DHT22;3565;53.254;10.352;2022-07-19T04:12:54;15.20;99.90
7048;DHT22;3565;53.254;10.352;2022-07-19T04:15:23;15.30;99.90
7048;DHT22;3565;53.254;10.352;2022-07-19T04:17:52;15.40;99.90
7048;DHT22;3565;53.254;10.352;2022-07-19T04:20:21;15.30;99.90
7048;DHT22;3565;53.254;10.352;2022-07-19T04:22:50;15.20;99.90
7048;DHT22;3565;53.254;10.352;2022-07-19T04:25:19;15.40;99.90
7048;DHT22;3565;53.254;10.352;2022-07-19T04:27:48;15.70;99.90
7048;DHT22;3565;53.254;10.352;2022-07-19T04:30:17;15.60;99.90
7048;DHT22;3565;53.254;10.352;2022-07-19T04:32:47;15.80;99.90
7048;DHT22;3565;53.254;10.352;2022-07-19T04:35:18;15.90;99.90
7048;DHT22;3565;53.254;10.352;2022-07-19T04:37:47;16.10;99.90
7048;DHT22;3565;53.254;10.352;2022-07-19T04:40:16;16.30;99.90
7048;DHT22;3565;53.254;10.352;2022-07-19T04:42:45;16.30;99.90
7048;DHT22;3565;53.254;10.352;2022-07-19T04:45:14;16.40;99.90
7048;DHT22;3565;53.254;10.352;2022-07-19T04:47:43;16.40;99.90
7048;DHT22;3565;53.254;10.352;2022-07-19T04:50:12;16.50;99.90
7048;DHT22;3565;53.254;10.352;2022-07-19T04:52:41;16.60;99.90
7048;DHT22;3565;53.254;10.352;2022-07-19T04:55:10;16.70;99.90
7048;DHT22;3565;53.254;10.352;2022-07-19T04:57:39;16.80;99.90
7048;DHT22;3565;53.254;10.352;2022-07-19T05:00:11;16.90;99.90
7048;DHT22;3565;53.254;10.352;2022-07-19T05:02:41;17.10;99.90
7048;DHT22;3565;53.254;10.352;2022-07-19T05:05:10;17.20;99.90
7048;DHT22;3565;53.254;10.352;2022-07-19T05:07:40;17.30;99.90
7048;DHT22;3565;53.254;10.352;2022-07-19T05:10:10;17.50;99.90
7048;DHT22;3565;53.254;10.352;2022-07-19T05:12:39;17.60;99.90
7048;DHT22;3565;53.254;10.352;2022-07-19T05:15:10;17.80;99.90
7048;DHT22;3565;53.254;10.352;2022-07-19T05:17:39;18.00;99.90
7048;DHT22;3565;53.254;10.352;2022-07-19T05:20:10;18.20;99.90
7048;DHT22;3565;53.254;10.352;2022-07-19T05:22:42;18.40;99.90
7048;DHT22;3565;53.254;10.352;2022-07-19T05:25:11;18.80;99.90
7048;DHT22;3565;53.254;10.352;2022-07-19T05:27:46;19.10;99.90
7048;DHT22;3565;53.254;10.352;2022-07-19T05:30:15;19.60;99.90
7048;DHT22;3565;53.254;10.352;2022-07-19T05:32:44;20.10;99.90
7048;DHT22;3565;53.254;10.352;2022-07-19T05:35:13;20.70;99.90
7048;DHT22;3565;53.254;10.352;2022-07-19T05:37:42;21.30;99.90
7048;DHT22;3565;53.254;10.352;2022-07-19T05:40:12;21.90;99.90
7048;DHT22;3565;53.254;10.352;2022-07-19T05:42:41;22.30;99.90
7048;DHT22;3565;53.254;10.352;2022-07-19T05:45:12;22.90;99.90
7048;DHT22;3565;53.254;10.352;2022-07-19T05:47:41;23.40;99.80
7048;DHT22;3565;53.254;10.352;2022-07-19T05:50:12;23.90;88.30
7048;DHT22;3565;53.254;10.352;2022-07-19T05:52:41;24.20;59.10
7048;DHT22;3565;53.254;10.352;2022-07-19T05:55:10;24.40;52.30
7048;DHT22;3565;53.254;10.352;2022-07-19T05:57:39;25.10;45.60
7048;DHT22;3565;53.254;10.352;2022-07-19T06:00:10;25.60;28.50
7048;DHT22;3565;53.254;10.352;2022-07-19T06:02:41;26.00;17.40
7048;DHT22;3565;53.254;10.352;2022-07-19T06:05:10;26.10;17.40
7048;DHT22;3565;53.254;10.352;2022-07-19T06:07:39;25.90;17.80
7048;DHT22;3565;53.254;10.352;2022-07-19T06:10:09;26.10;12.80
7048;DHT22;3565;53.254;10.352;2022-07-19T06:12:39;26.50;12.50
7048;DHT22;3565;53.254;10.352;2022-07-19T06:15:10;26.00;2.40
7048;DHT22;3565;53.254;10.352;2022-07-19T06:17:39;25.40;15.50
7048;DHT22;3565;53.254;10.352;2022-07-19T06:20:10;25.40;16.20
7048;DHT22;3565;53.254;10.352;2022-07-19T06:22:40;25.40;19.90
7048;DHT22;3565;53.254;10.352;2022-07-19T06:25:09;25.90;8.60
7048;DHT22;3565;53.254;10.352;2022-07-19T06:27:38;26.10;13.60
7048;DHT22;3565;53.254;10.352;2022-07-19T06:30:09;26.80;4.60
7048;DHT22;3565;53.254;10.352;2022-07-19T06:32:38;27.30;1.00
7048;DHT22;3565;53.254;10.352;2022-07-19T06:35:09;27.90;1.00
7048;DHT22;3565;53.254;10.352;2022-07-19T06:37:39;27.10;1.00
7048;DHT22;3565;53.254;10.352;2022-07-19T06:40:10;27.60;1.00
7048;DHT22;3565;53.254;10.352;2022-07-19T06:42:40;28.10;1.00
7048;DHT22;3565;53.254;10.352;2022-07-19T06:45:10;28.70;1.00
7048;DHT22;3565;53.254;10.352;2022-07-19T06:47:40;28.30;1.00
7048;DHT22;3565;53.254;10.352;2022-07-19T06:50:10;28.20;1.00
7048;DHT22;3565;53.254;10.352;2022-07-19T06:55:18;28.70;1.00
7048;DHT22;3565;53.254;10.352;2022-07-19T06:57:47;26.90;1.00
7048;DHT22;3565;53.254;10.352;2022-07-19T07:00:16;27.00;1.00
7048;DHT22;3565;53.254;10.352;2022-07-19T07:02:45;28.50;1.00
7048;DHT22;3565;53.254;10.352;2022-07-19T07:05:22;29.30;1.00
7048;DHT22;3565;53.254;10.352;2022-07-19T07:07:52;30.10;1.00
7048;DHT22;3565;53.254;10.352;2022-07-19T07:10:22;30.20;1.00
7048;DHT22;3565;53.254;10.352;2022-07-19T07:12:51;29.20;1.00
7048;DHT22;3565;53.254;10.352;2022-07-19T07:15:20;30.50;1.00
7048;DHT22;3565;53.254;10.352;2022-07-19T07:17:49;29.70;1.00
7048;DHT22;3565;53.254;10.352;2022-07-19T07:20:19;29.70;1.00
7048;DHT22;3565;53.254;10.352;2022-07-19T07:22:49;29.80;1.00
7048;DHT22;3565;53.254;10.352;2022-07-19T07:25:18;29.40;1.00
7048;DHT22;3565;53.254;10.352;2022-07-19T07:27:49;30.30;1.00
7048;DHT22;3565;53.254;10.352;2022-07-19T07:30:18;31.00;1.00
7048;DHT22;3565;53.254;10.352;2022-07-19T07:32:47;32.30;1.00
7048;DHT22;3565;53.254;10.352;2022-07-19T07:35:16;33.00;1.00
7048;DHT22;3565;53.254;10.352;2022-07-19T07:37:45;31.10;1.00
7048;DHT22;3565;53.254;10.352;2022-07-19T07:40:14;30.20;1.00
7048;DHT22;3565;53.254;10.352;2022-07-19T07:42:44;31.00;1.00
7048;DHT22;3565;53.254;10.352;2022-07-19T07:45:13;31.60;1.00
7048;DHT22;3565;53.254;10.352;2022-07-19T07:47:42;30.80;1.00
7048;DHT22;3565;53.254;10.352;2022-07-19T07:50:11;31.90;1.00
7048;DHT22;3565;53.254;10.352;2022-07-19T07:52:40;31.20;1.00
7048;DHT22;3565;53.254;10.352;2022-07-19T07:55:10;30.50;1.00
7048;DHT22;3565;53.254;10.352;2022-07-19T07:57:39;31.20;1.00
7048;DHT22;3565;53.254;10.352;2022-07-19T08:00:12;32.20;1.00
7048;DHT22;3565;53.254;10.352;2022-07-19T08:02:42;33.60;1.00
7048;DHT22;3565;53.254;10.352;2022-07-19T08:05:12;33.00;1.00
7048;DHT22;3565;53.254;10.352;2022-07-19T08:07:41;33.30;1.00
7048;DHT22;3565;53.254;10.352;2022-07-19T08:10:11;32.70;1.00
7048;DHT22;3565;53.254;10.352;2022-07-19T08:12:40;32.80;1.00
7048;DHT22;3565;53.254;10.352;2022-07-19T08:15:10;32.60;1.00
7048;DHT22;3565;53.254;10.352;2022-07-19T08:17:39;33.20;1.00
7048;DHT22;3565;53.254;10.352;2022-07-19T08:22:54;33.40;1.00
7048;DHT22;3565;53.254;10.352;2022-07-19T08:25:23;33.50;1.00
7048;DHT22;3565;53.254;10.352;2022-07-19T08:27:52;33.50;1.00
7048;DHT22;3565;53.254;10.352;2022-07-19T08:30:21;33.10;1.00
7048;DHT22;3565;53.254;10.352;2022-07-19T08:32:50;33.80;1.00
7048;DHT22;3565;53.254;10.352;2022-07-19T08:35:19;35.20;1.00
7048;DHT22;3565;53.254;10.352;2022-07-19T08:37:48;33.60;1.00
7048;DHT22;3565;53.254;10.352;2022-07-19T08:40:36;33.60;1.00
7048;DHT22;3565;53.254;10.352;2022-07-19T08:43:07;34.90;1.00
7048;DHT22;3565;53.254;10.352;2022-07-19T08:48:06;33.40;1.00
7048;DHT22;3565;53.254;10.352;2022-07-19T08:50:36;33.90;1.00
7048;DHT22;3565;53.254;10.352;2022-07-19T08:53:05;34.00;1.00
7048;DHT22;3565;53.254;10.352;2022-07-19T08:55:34;33.30;1.00
7048;DHT22;3565;53.254;10.352;2022-07-19T08:58:04;33.30;1.00
7048;DHT22;3565;53.254;10.352;2022-07-19T09:00:34;33.40;1.00
7048;DHT22;3565;53.254;10.352;2022-07-19T09:03:04;33.50;1.00
7048;DHT22;3565;53.254;10.352;2022-07-19T09:05:34;33.20;1.00
7048;DHT22;3565;53.254;10.352;2022-07-19T09:08:06;33.60;1.00
7048;DHT22;3565;53.254;10.352;2022-07-19T09:10:37;33.30;1.00
7048;DHT22;3565;53.254;10.352;2022-07-19T09:15:46;33.40;1.00
7048;DHT22;3565;53.254;10.352;2022-07-19T09:18:19;35.50;1.00
7048;DHT22;3565;53.254;10.352;2022-07-19T09:20:51;35.60;1.00
7048;DHT22;3565;53.254;10.352;2022-07-19T09:23:21;35.70;1.00
7048;DHT22;3565;53.254;10.352;2022-07-19T09:25:52;36.20;1.00
7048;DHT22;3565;53.254;10.352;2022-07-19T09:28:22;36.10;1.00
7048;DHT22;3565;53.254;10.352;2022-07-19T09:30:53;35.70;1.00
7048;DHT22;3565;53.254;10.352;2022-07-19T09:33:25;36.00;1.00
7048;DHT22;3565;53.254;10.352;2022-07-19T09:35:56;36.00;1.00
7048;DHT22;3565;53.254;10.352;2022-07-19T09:38:27;35.20;1.00
7048;DHT22;3565;53.254;10.352;2022-07-19T09:41:08;35.00;1.00
7048;DHT22;3565;53.254;10.352;2022-07-19T09:43:51;35.40;1.00
7048;DHT22;3565;53.254;10.352;2022-07-19T09:46:31;35.90;1.00
7048;DHT22;3565;53.254;10.352;2022-07-19T09:49:05;35.90;1.00
7048;DHT22;3565;53.254;10.352;2022-07-19T09:51:36;35.50;1.00
7048;DHT22;3565;53.254;10.352;2022-07-19T09:54:07;37.50;1.00
7048;DHT22;3565;53.254;10.352;2022-07-19T09:56:38;36.50;1.00
7048;DHT22;3565;53.254;10.352;2022-07-19T09:59:08;35.80;1.00
7048;DHT22;3565;53.254;10.352;2022-07-19T10:01:38;35.30;1.00
7048;DHT22;3565;53.254;10.352;2022-07-19T10:04:09;36.50;1.00
7048;DHT22;3565;53.254;10.352;2022-07-19T10:06:39;36.40;1.00
7048;DHT22;3565;53.254;10.352;2022-07-19T10:09:10;36.50;1.00
7048;DHT22;3565;53.254;10.352;2022-07-19T10:11:39;35.90;1.00
7048;DHT22;3565;53.254;10.352;2022-07-19T10:14:09;37.40;1.00
7048;DHT22;3565;53.254;10.352;2022-07-19T10:17:20;36.20;1.00
7048;DHT22;3565;53.254;10.352;2022-07-19T10:19:49;37.40;1.00
7048;DHT22;3565;53.254;10.352;2022-07-19T10:22:20;37.40;1.00
7048;DHT22;3565;53.254;10.352;2022-07-19T10:24:55;38.60;1.00
7048;DHT22;3565;53.254;10.352;2022-07-19T10:27:39;37.50;1.00
7048;DHT22;3565;53.254;10.352;2022-07-19T10:30:24;35.50;1.00
7048;DHT22;3565;53.254;10.352;2022-07-19T10:32:55;37.40;1.00
7048;DHT22;3565;53.254;10.352;2022-07-19T10:35:28;37.50;1.00
7048;DHT22;3565;53.254;10.352;2022-07-19T10:38:09;37.30;1.00
7048;DHT22;3565;53.254;10.352;2022-07-19T10:40:39;36.80;1.00
7048;DHT22;3565;53.254;10.352;2022-07-19T10:43:10;37.00;1.00
7048;DHT22;3565;53.254;10.352;2022-07-19T10:45:40;37.40;1.00
7048;DHT22;3565;53.254;10.352;2022-07-19T10:48:12;35.90;1.00
7048;DHT22;3565;53.254;10.352;2022-07-19T10:50:52;35.70;1.00
7048;DHT22;3565;53.254;10.352;2022-07-19T10:56:56;36.60;1.00
7048;DHT22;3565;53.254;10.352;2022-07-19T10:59:42;36.00;1.00
7048;DHT22;3565;53.254;10.352;2022-07-19T11:02:23;37.40;1.00
7048;DHT22;3565;53.254;10.352;2022-07-19T11:04:52;37.60;1.00
7048;DHT22;3565;53.254;10.352;2022-07-19T11:07:22;37.80;1.00
7048;DHT22;3565;53.254;10.352;2022-07-19T11:09:53;37.90;1.00
7048;DHT22;3565;53.254;10.352;2022-07-19T11:12:31;39.00;1.00
7048;DHT22;3565;53.254;10.352;2022-07-19T11:15:06;38.10;1.00
7048;DHT22;3565;53.254;10.352;2022-07-19T11:17:35;38.40;1.00
7048;DHT22;3565;53.254;10.352;2022-07-19T11:20:09;38.20;1.00
7048;DHT22;3565;53.254;10.352;2022-07-19T11:22:40;38.20;1.00
7048;DHT22;3565;53.254;10.352;2022-07-19T11:25:11;38.50;1.00
7048;DHT22;3565;53.254;10.352;2022-07-19T11:27:42;38.40;1.00
7048;DHT22;3565;53.254;10.352;2022-07-19T11:30:12;38.60;1.00
7048;DHT22;3565;53.254;10.352;2022-07-19T11:35:29;38.50;1.00
7048;DHT22;3565;53.254;10.352;2022-07-19T11:37:59;38.60;1.00
7048;DHT22;3565;53.254;10.352;2022-07-19T11:40:34;38.40;1.00
7048;DHT22;3565;53.254;10.352;2022-07-19T11:43:07;38.40;1.00
7048;DHT22;3565;53.254;10.352;2022-07-19T11:45:43;39.30;1.00
7048;DHT22;3565;53.254;10.352;2022-07-19T11:48:12;39.10;1.00
7048;DHT22;3565;53.254;10.352;2022-07-19T11:50:43;39.10;1.00
7048;DHT22;3565;53.254;10.352;2022-07-19T11:55:51;38.30;1.00
7048;DHT22;3565;53.254;10.352;2022-07-19T11:58:20;37.20;1.00
7048;DHT22;3565;53.254;10.352;2022-07-19T12:00:49;37.30;1.00
7048;DHT22;3565;53.254;10.352;2022-07-19T12:03:19;37.70;1.00
7048;DHT22;3565;53.254;10.352;2022-07-19T12:11:21;38.50;1.00
7048;DHT22;3565;53.254;10.352;2022-07-19T12:13:51;39.10;1.00
7048;DHT22;3565;53.254;10.352;2022-07-19T12:16:21;39.10;1.00
7048;DHT22;3565;53.254;10.352;2022-07-19T12:18:52;39.50;1.00
7048;DHT22;3565;53.254;10.352;2022-07-19T12:27:04;37.70;1.00
7048;DHT22;3565;53.254;10.352;2022-07-19T12:29:36;37.50;1.00
7048;DHT22;3565;53.254;10.352;2022-07-19T12:32:07;40.20;1.00
7048;DHT22;3565;53.254;10.352;2022-07-19T12:34:45;40.40;1.00
7048;DHT22;3565;53.254;10.352;2022-07-19T12:37:23;41.70;1.00
7048;DHT22;3565;53.254;10.352;2022-07-19T12:40:01;41.80;1.00
7048;DHT22;3565;53.254;10.352;2022-07-19T12:42:41;41.10;1.00
7048;DHT22;3565;53.254;10.352;2022-07-19T12:45:11;40.60;1.00
7048;DHT22;3565;53.254;10.352;2022-07-19T12:47:41;40.60;1.00
7048;DHT22;3565;53.254;10.352;2022-07-19T12:50:17;40.60;1.00
7048;DHT22;3565;53.254;10.352;2022-07-19T12:52:42;40.60;1.00
7048;DHT22;3565;53.254;10.352;2022-07-19T12:55:11;40.80;1.00
7048;DHT22;3565;53.254;10.352;2022-07-19T12:57:40;41.40;1.00
7048;DHT22;3565;53.254;10.352;2022-07-19T13:00:12;39.90;1.00
7048;DHT22;3565;53.254;10.352;2022-07-19T13:02:41;40.70;1.00
7048;DHT22;3565;53.254;10.352;2022-07-19T13:05:10;40.70;1.00
7048;DHT22;3565;53.254;10.352;2022-07-19T13:07:39;39.70;1.00
7048;DHT22;3565;53.254;10.352;2022-07-19T13:10:09;40.20;1.00
7048;DHT22;3565;53.254;10.352;2022-07-19T13:12:39;40.10;1.00
7048;DHT22;3565;53.254;10.352;2022-07-19T13:15:10;39.90;1.00
7048;DHT22;3565;53.254;10.352;2022-07-19T13:17:40;39.30;1.00
7048;DHT22;3565;53.254;10.352;2022-07-19T13:20:10;40.20;1.00
7048;DHT22;3565;53.254;10.352;2022-07-19T13:22:41;40.00;1.00
7048;DHT22;3565;53.254;10.352;2022-07-19T13:25:11;38.80;1.00
7048;DHT22;3565;53.254;10.352;2022-07-19T13:27:40;39.60;1.00
7048;DHT22;3565;53.254;10.352;2022-07-19T13:30:10;39.50;1.00
7048;DHT22;3565;53.254;10.352;2022-07-19T13:32:40;39.70;1.00
7048;DHT22;3565;53.254;10.352;2022-07-19T13:35:10;40.80;1.00
7048;DHT22;3565;53.254;10.352;2022-07-19T13:37:39;39.50;1.00
7048;DHT22;3565;53.254;10.352;2022-07-19T13:40:10;38.70;1.00
7048;DHT22;3565;53.254;10.352;2022-07-19T13:42:40;38.70;1.00
7048;DHT22;3565;53.254;10.352;2022-07-19T13:45:10;40.20;1.00
7048;DHT22;3565;53.254;10.352;2022-07-19T13:47:39;39.80;1.00
7048;DHT22;3565;53.254;10.352;2022-07-19T13:50:09;40.10;1.00
7048;DHT22;3565;53.254;10.352;2022-07-19T13:52:38;38.60;1.00
7048;DHT22;3565;53.254;10.352;2022-07-19T13:55:08;38.60;1.00
7048;DHT22;3565;53.254;10.352;2022-07-19T13:57:37;40.20;1.00
7048;DHT22;3565;53.254;10.352;2022-07-19T14:00:11;40.30;1.00
7048;DHT22;3565;53.254;10.352;2022-07-19T14:02:42;41.00;1.00
7048;DHT22;3565;53.254;10.352;2022-07-19T14:07:39;38.80;1.00
7048;DHT22;3565;53.254;10.352;2022-07-19T14:10:09;38.70;1.00
7048;DHT22;3565;53.254;10.352;2022-07-19T14:12:37;38.60;1.00
7048;DHT22;3565;53.254;10.352;2022-07-19T14:15:08;39.60;1.00
7048;DHT22;3565;53.254;10.352;2022-07-19T14:17:37;40.60;1.00
7048;DHT22;3565;53.254;10.352;2022-07-19T14:20:08;42.10;1.00
7048;DHT22;3565;53.254;10.352;2022-07-19T14:22:37;42.00;1.00
7048;DHT22;3565;53.254;10.352;2022-07-19T14:25:07;42.30;1.00
7048;DHT22;3565;53.254;10.352;2022-07-19T14:27:36;42.30;1.00
7048;DHT22;3565;53.254;10.352;2022-07-19T14:30:07;42.00;1.00
7048;DHT22;3565;53.254;10.352;2022-07-19T14:32:36;42.00;1.00
7048;DHT22;3565;53.254;10.352;2022-07-19T14:35:05;41.90;1.00
7048;DHT22;3565;53.254;10.352;2022-07-19T14:37:34;41.60;1.00
7048;DHT22;3565;53.254;10.352;2022-07-19T14:40:05;42.60;1.00
7048;DHT22;3565;53.254;10.352;2022-07-19T14:42:34;42.60;1.00
7048;DHT22;3565;53.254;10.352;2022-07-19T14:45:04;40.90;1.00
7048;DHT22;3565;53.254;10.352;2022-07-19T14:47:33;41.80;1.00
7048;DHT22;3565;53.254;10.352;2022-07-19T14:50:05;41.30;1.00
7048;DHT22;3565;53.254;10.352;2022-07-19T14:52:35;41.40;1.00
7048;DHT22;3565;53.254;10.352;2022-07-19T14:55:05;41.00;1.00
7048;DHT22;3565;53.254;10.352;2022-07-19T14:57:34;41.40;1.00
7048;DHT22;3565;53.254;10.352;2022-07-19T15:00:06;41.00;1.00
7048;DHT22;3565;53.254;10.352;2022-07-19T15:02:35;41.00;1.00
7048;DHT22;3565;53.254;10.352;2022-07-19T15:05:05;40.70;1.00
7048;DHT22;3565;53.254;10.352;2022-07-19T15:07:35;41.20;1.00
7048;DHT22;3565;53.254;10.352;2022-07-19T15:10:05;41.10;1.00
7048;DHT22;3565;53.254;10.352;2022-07-19T15:12:35;41.20;1.00
7048;DHT22;3565;53.254;10.352;2022-07-19T15:15:04;41.80;1.00
7048;DHT22;3565;53.254;10.352;2022-07-19T15:17:35;42.10;1.00
7048;DHT22;3565;53.254;10.352;2022-07-19T15:20:06;43.50;1.00
7048;DHT22;3565;53.254;10.352;2022-07-19T15:22:35;43.40;1.00
7048;DHT22;3565;53.254;10.352;2022-07-19T15:25:06;43.60;1.00
7048;DHT22;3565;53.254;10.352;2022-07-19T15:27:36;43.30;1.00
7048;DHT22;3565;53.254;10.352;2022-07-19T15:30:07;41.00;1.00
7048;DHT22;3565;53.254;10.352;2022-07-19T15:32:37;40.70;1.00
7048;DHT22;3565;53.254;10.352;2022-07-19T15:35:08;40.10;1.00
7048;DHT22;3565;53.254;10.352;2022-07-19T15:37:37;40.10;1.00
7048;DHT22;3565;53.254;10.352;2022-07-19T15:40:08;40.90;1.00
7048;DHT22;3565;53.254;10.352;2022-07-19T15:42:42;41.00;1.00
7048;DHT22;3565;53.254;10.352;2022-07-19T15:45:13;42.50;1.00
7048;DHT22;3565;53.254;10.352;2022-07-19T15:47:43;42.70;1.00
7048;DHT22;3565;53.254;10.352;2022-07-19T15:50:13;42.30;1.00
7048;DHT22;3565;53.254;10.352;2022-07-19T15:52:43;41.10;1.00
7048;DHT22;3565;53.254;10.352;2022-07-19T15:55:13;42.70;1.00
7048;DHT22;3565;53.254;10.352;2022-07-19T15:57:42;43.20;1.00
7048;DHT22;3565;53.254;10.352;2022-07-19T16:00:12;42.70;1.00
7048;DHT22;3565;53.254;10.352;2022-07-19T16:02:41;42.70;1.00
7048;DHT22;3565;53.254;10.352;2022-07-19T16:05:10;43.40;1.00
7048;DHT22;3565;53.254;10.352;2022-07-19T16:07:40;43.00;1.00
7048;DHT22;3565;53.254;10.352;2022-07-19T16:10:10;43.30;1.00
7048;DHT22;3565;53.254;10.352;2022-07-19T16:12:39;43.40;1.00
7048;DHT22;3565;53.254;10.352;2022-07-19T16:15:09;42.20;1.00
7048;DHT22;3565;53.254;10.352;2022-07-19T16:17:38;42.30;1.00
7048;DHT22;3565;53.254;10.352;2022-07-19T16:20:10;42.70;1.00
7048;DHT22;3565;53.254;10.352;2022-07-19T16:22:39;42.50;1.00
7048;DHT22;3565;53.254;10.352;2022-07-19T16:25:10;40.30;1.00
7048;DHT22;3565;53.254;10.352;2022-07-19T16:27:39;40.30;1.00
7048;DHT22;3565;53.254;10.352;2022-07-19T16:30:09;41.00;1.00
7048;DHT22;3565;53.254;10.352;2022-07-19T16:32:38;41.10;1.00
7048;DHT22;3565;53.254;10.352;2022-07-19T16:35:09;41.90;1.00
7048;DHT22;3565;53.254;10.352;2022-07-19T16:37:37;41.20;1.00
7048;DHT22;3565;53.254;10.352;2022-07-19T16:40:09;41.10;1.00
7048;DHT22;3565;53.254;10.352;2022-07-19T16:45:09;41.40;1.00
7048;DHT22;3565;53.254;10.352;2022-07-19T16:47:38;40.80;1.00
7048;DHT22;3565;53.254;10.352;2022-07-19T16:50:09;39.60;1.00
7048;DHT22;3565;53.254;10.352;2022-07-19T16:52:38;40.20;1.00
7048;DHT22;3565;53.254;10.352;2022-07-19T16:55:08;39.90;1.00
7048;DHT22;3565;53.254;10.352;2022-07-19T16:57:38;40.00;1.00
7048;DHT22;3565;53.254;10.352;2022-07-19T17:00:09;39.40;1.00
7048;DHT22;3565;53.254;10.352;2022-07-19T17:02:38;39.40;1.00
7048;DHT22;3565;53.254;10.352;2022-07-19T17:05:08;39.50;1.00
7048;DHT22;3565;53.254;10.352;2022-07-19T17:07:37;39.60;1.00
7048;DHT22;3565;53.254;10.352;2022-07-19T17:10:08;39.00;1.00
7048;DHT22;3565;53.254;10.352;2022-07-19T17:12:37;39.10;1.00
7048;DHT22;3565;53.254;10.352;2022-07-19T17:15:08;38.60;1.00
7048;DHT22;3565;53.254;10.352;2022-07-19T17:17:37;38.30;1.00
7048;DHT22;3565;53.254;10.352;2022-07-19T17:20:07;38.50;1.00
7048;DHT22;3565;53.254;10.352;2022-07-19T17:22:36;38.70;1.00
7048;DHT22;3565;53.254;10.352;2022-07-19T17:25:07;38.50;1.00
7048;DHT22;3565;53.254;10.352;2022-07-19T17:27:37;38.50;1.00
7048;DHT22;3565;53.254;10.352;2022-07-19T17:30:08;38.00;1.00
7048;DHT22;3565;53.254;10.352;2022-07-19T17:32:36;37.90;1.00
7048;DHT22;3565;53.254;10.352;2022-07-19T17:35:07;37.30;1.00
7048;DHT22;3565;53.254;10.352;2022-07-19T17:37:36;37.90;1.00
7048;DHT22;3565;53.254;10.352;2022-07-19T17:40:08;37.80;1.00
7048;DHT22;3565;53.254;10.352;2022-07-19T17:42:37;37.80;1.00
7048;DHT22;3565;53.254;10.352;2022-07-19T17:45:08;37.10;1.00
7048;DHT22;3565;53.254;10.352;2022-07-19T17:47:37;37.00;1.00
7048;DHT22;3565;53.254;10.352;2022-07-19T17:50:07;36.90;1.00
7048;DHT22;3565;53.254;10.352;2022-07-19T17:52:36;36.70;1.00
7048;DHT22;3565;53.254;10.352;2022-07-19T17:55:06;36.80;1.00